sensor_id;sensor_type;location;lat;lon;timestamp;P1;durP1;ratioP1;P2;durP2;ratioP2
25231;SDS011;13176;51.140;6.290;2023-09-18T00:01:03;1037.57;;;933.80;;
25231;SDS011;13176;51.140;6.290;2023-09-18T00:03:31;1030.20;;;926.55;;
25231;SDS011;13176;51.140;6.290;2023-09-18T00:05:58;1029.85;;;931.92;;
25231;SDS011;13176;51.140;6.290;2023-09-18T00:08:25;1022.72;;;924.17;;
25231;SDS011;13176;51.140;6.290;2023-09-18T00:10:53;1073.43;;;967.85;;
25231;SDS011;13176;51.140;6.290;2023-09-18T00:13:21;1113.72;;;997.95;;
25231;SDS011;13176;51.140;6.290;2023-09-18T00:15:48;1110.68;;;995.28;;
25231;SDS011;13176;51.140;6.290;2023-09-18T00:18:15;1132.93;;;999.90;;
25231;SDS011;13176;51.140;6.290;2023-09-18T00:20:46;1135.95;;;999.90;;
25231;SDS011;13176;51.140;6.290;2023-09-18T00:23:14;1094.32;;;979.03;;
25231;SDS011;13176;51.140;6.290;2023-09-18T00:25:42;1134.85;;;999.90;;
25231;SDS011;13176;51.140;6.290;2023-09-18T00:28:08;1119.18;;;999.60;;
25231;SDS011;13176;51.140;6.290;2023-09-18T00:30:37;1111.07;;;995.97;;
25231;SDS011;13176;51.140;6.290;2023-09-18T00:33:08;1146.68;;;999.90;;
25231;SDS011;13176;51.140;6.290;2023-09-18T00:35:35;1130.70;;;999.90;;
25231;SDS011;13176;51.140;6.290;2023-09-18T00:38:01;1127.85;;;999.90;;
25231;SDS011;13176;51.140;6.290;2023-09-18T00:40:30;1117.22;;;999.05;;
25231;SDS011;13176;51.140;6.290;2023-09-18T00:42:56;1114.30;;;997.08;;
25231;SDS011;13176;51.140;6.290;2023-09-18T00:45:22;1134.97;;;999.90;;
25231;SDS011;13176;51.140;6.290;2023-09-18T00:47:49;1140.72;;;999.90;;
25231;SDS011;13176;51.140;6.290;2023-09-18T00:50:16;1138.85;;;999.90;;
25231;SDS011;13176;51.140;6.290;2023-09-18T00:52:43;1126.65;;;997.95;;
25231;SDS011;13176;51.140;6.290;2023-09-18T00:55:10;1125.13;;;999.80;;
25231;SDS011;13176;51.140;6.290;2023-09-18T00:57:37;1107.50;;;988.60;;
25231;SDS011;13176;51.140;6.290;2023-09-18T01:00:04;1129.80;;;999.90;;
25231;SDS011;13176;51.140;6.290;2023-09-18T01:02:31;1128.88;;;999.90;;
25231;SDS011;13176;51.140;6.290;2023-09-18T01:04:58;1135.13;;;999.90;;
25231;SDS011;13176;51.140;6.290;2023-09-18T01:07:25;1132.20;;;999.90;;
25231;SDS011;13176;51.140;6.290;2023-09-18T01:09:55;1124.78;;;997.35;;
25231;SDS011;13176;51.140;6.290;2023-09-18T01:12:30;1100.75;;;985.60;;
25231;SDS011;13176;51.140;6.290;2023-09-18T01:15:17;1114.45;;;998.53;;
25231;SDS011;13176;51.140;6.290;2023-09-18T01:17:49;1123.03;;;997.08;;
25231;SDS011;13176;51.140;6.290;2023-09-18T01:20:16;1116.20;;;996.58;;
25231;SDS011;13176;51.140;6.290;2023-09-18T01:22:45;1114.07;;;996.05;;
25231;SDS011;13176;51.140;6.290;2023-09-18T01:25:11;1114.07;;;992.75;;
25231;SDS011;13176;51.140;6.290;2023-09-18T01:27:38;1102.30;;;986.00;;
25231;SDS011;13176;51.140;6.290;2023-09-18T01:30:05;1112.63;;;993.83;;
25231;SDS011;13176;51.140;6.290;2023-09-18T01:32:32;1098.88;;;984.85;;
25231;SDS011;13176;51.140;6.290;2023-09-18T01:35:00;1114.38;;;992.58;;
25231;SDS011;13176;51.140;6.290;2023-09-18T01:37:29;1140.30;;;999.90;;
25231;SDS011;13176;51.140;6.290;2023-09-18T01:39:57;1122.25;;;996.40;;
25231;SDS011;13176;51.140;6.290;2023-09-18T01:42:26;1102.90;;;988.35;;
25231;SDS011;13176;51.140;6.290;2023-09-18T01:44:53;1101.07;;;988.75;;
25231;SDS011;13176;51.140;6.290;2023-09-18T01:47:21;1151.55;;;999.90;;
25231;SDS011;13176;51.140;6.290;2023-09-18T01:49:54;1134.10;;;998.85;;
25231;SDS011;13176;51.140;6.290;2023-09-18T01:52:21;1097.22;;;984.88;;
25231;SDS011;13176;51.140;6.290;2023-09-18T01:54:48;1126.82;;;999.35;;
25231;SDS011;13176;51.140;6.290;2023-09-18T01:57:15;1103.28;;;989.85;;
25231;SDS011;13176;51.140;6.290;2023-09-18T01:59:41;1091.78;;;982.67;;
25231;SDS011;13176;51.140;6.290;2023-09-18T02:02:09;1125.70;;;999.90;;
25231;SDS011;13176;51.140;6.290;2023-09-18T02:04:40;1120.88;;;999.83;;
25231;SDS011;13176;51.140;6.290;2023-09-18T02:07:27;1123.70;;;999.10;;
25231;SDS011;13176;51.140;6.290;2023-09-18T02:09:53;1125.25;;;999.78;;
25231;SDS011;13176;51.140;6.290;2023-09-18T02:12:23;1106.95;;;989.45;;
25231;SDS011;13176;51.140;6.290;2023-09-18T02:14:49;1086.53;;;975.17;;
25231;SDS011;13176;51.140;6.290;2023-09-18T02:17:16;1122.75;;;999.90;;
25231;SDS011;13176;51.140;6.290;2023-09-18T02:19:43;1131.20;;;999.90;;
25231;SDS011;13176;51.140;6.290;2023-09-18T02:22:09;1118.15;;;997.70;;
25231;SDS011;13176;51.140;6.290;2023-09-18T02:24:36;1123.75;;;998.72;;
25231;SDS011;13176;51.140;6.290;2023-09-18T02:27:05;1106.78;;;990.88;;
25231;SDS011;13176;51.140;6.290;2023-09-18T02:29:32;1101.25;;;985.83;;
25231;SDS011;13176;51.140;6.290;2023-09-18T02:31:59;1083.10;;;967.67;;
25231;SDS011;13176;51.140;6.290;2023-09-18T02:34:26;1110.95;;;993.35;;
25231;SDS011;13176;51.140;6.290;2023-09-18T02:36:52;1100.68;;;986.35;;
25231;SDS011;13176;51.140;6.290;2023-09-18T02:39:19;1122.03;;;997.25;;
25231;SDS011;13176;51.140;6.290;2023-09-18T02:41:45;1123.03;;;999.28;;
25231;SDS011;13176;51.140;6.290;2023-09-18T02:44:11;1096.82;;;984.90;;
25231;SDS011;13176;51.140;6.290;2023-09-18T02:46:38;1133.32;;;999.90;;
25231;SDS011;13176;51.140;6.290;2023-09-18T02:49:05;1112.15;;;995.15;;
25231;SDS011;13176;51.140;6.290;2023-09-18T02:51:32;1113.13;;;993.53;;
25231;SDS011;13176;51.140;6.290;2023-09-18T02:53:58;1109.00;;;993.45;;
25231;SDS011;13176;51.140;6.290;2023-09-18T02:56:25;1104.72;;;989.90;;
25231;SDS011;13176;51.140;6.290;2023-09-18T02:58:51;1109.63;;;992.35;;
25231;SDS011;13176;51.140;6.290;2023-09-18T03:01:18;1099.93;;;989.20;;
25231;SDS011;13176;51.140;6.290;2023-09-18T03:03:45;1112.90;;;997.97;;
25231;SDS011;13176;51.140;6.290;2023-09-18T03:06:12;1121.13;;;999.90;;
25231;SDS011;13176;51.140;6.290;2023-09-18T03:08:39;1121.38;;;999.90;;
25231;SDS011;13176;51.140;6.290;2023-09-18T03:11:13;1038.82;;;936.33;;
25231;SDS011;13176;51.140;6.290;2023-09-18T03:13:44;1117.22;;;999.00;;
25231;SDS011;13176;51.140;6.290;2023-09-18T03:16:12;1110.40;;;994.88;;
25231;SDS011;13176;51.140;6.290;2023-09-18T03:18:39;1104.30;;;989.47;;
25231;SDS011;13176;51.140;6.290;2023-09-18T03:21:05;1119.13;;;999.90;;
25231;SDS011;13176;51.140;6.290;2023-09-18T03:23:32;1115.72;;;996.40;;
25231;SDS011;13176;51.140;6.290;2023-09-18T03:25:59;1101.45;;;986.30;;
25231;SDS011;13176;51.140;6.290;2023-09-18T03:28:26;1115.05;;;994.00;;
25231;SDS011;13176;51.140;6.290;2023-09-18T03:30:52;1110.00;;;994.80;;
25231;SDS011;13176;51.140;6.290;2023-09-18T03:33:19;1137.28;;;999.90;;
25231;SDS011;13176;51.140;6.290;2023-09-18T03:35:46;1130.10;;;999.08;;
25231;SDS011;13176;51.140;6.290;2023-09-18T03:38:15;1090.82;;;977.67;;
25231;SDS011;13176;51.140;6.290;2023-09-18T03:40:41;1076.95;;;964.35;;
25231;SDS011;13176;51.140;6.290;2023-09-18T03:43:09;1079.53;;;966.33;;
25231;SDS011;13176;51.140;6.290;2023-09-18T03:45:38;1090.43;;;978.53;;
25231;SDS011;13176;51.140;6.290;2023-09-18T03:48:08;1058.10;;;949.88;;
25231;SDS011;13176;51.140;6.290;2023-09-18T03:50:35;1034.50;;;931.17;;
25231;SDS011;13176;51.140;6.290;2023-09-18T03:53:02;1069.35;;;957.95;;
25231;SDS011;13176;51.140;6.290;2023-09-18T03:55:29;1099.03;;;985.03;;
25231;SDS011;13176;51.140;6.290;2023-09-18T03:57:56;1107.78;;;993.75;;
25231;SDS011;13176;51.140;6.290;2023-09-18T04:00:23;1075.93;;;969.78;;
25231;SDS011;13176;51.140;6.290;2023-09-18T04:02:50;1087.40;;;977.60;;
25231;SDS011;13176;51.140;6.290;2023-09-18T04:05:17;1065.10;;;956.85;;
25231;SDS011;13176;51.140;6.290;2023-09-18T04:07:45;1045.53;;;944.58;;
25231;SDS011;13176;51.140;6.290;2023-09-18T04:10:13;1084.40;;;976.80;;
25231;SDS011;13176;51.140;6.290;2023-09-18T04:12:50;1092.72;;;981.05;;
25231;SDS011;13176;51.140;6.290;2023-09-18T04:15:17;1073.07;;;967.78;;
25231;SDS011;13176;51.140;6.290;2023-09-18T04:17:45;1088.95;;;980.88;;
25231;SDS011;13176;51.140;6.290;2023-09-18T04:20:12;1098.90;;;989.55;;
25231;SDS011;13176;51.140;6.290;2023-09-18T04:22:41;1053.22;;;947.83;;
25231;SDS011;13176;51.140;6.290;2023-09-18T04:25:09;1056.97;;;952.42;;
25231;SDS011;13176;51.140;6.290;2023-09-18T04:27:36;1041.75;;;940.33;;
25231;SDS011;13176;51.140;6.290;2023-09-18T04:30:03;1077.95;;;969.55;;
25231;SDS011;13176;51.140;6.290;2023-09-18T04:32:30;1103.25;;;989.85;;
25231;SDS011;13176;51.140;6.290;2023-09-18T04:34:57;1121.00;;;999.90;;
25231;SDS011;13176;51.140;6.290;2023-09-18T04:37:23;1140.70;;;999.90;;
25231;SDS011;13176;51.140;6.290;2023-09-18T04:39:50;1092.15;;;981.47;;
25231;SDS011;13176;51.140;6.290;2023-09-18T04:42:19;1088.20;;;974.85;;
25231;SDS011;13176;51.140;6.290;2023-09-18T04:44:46;1099.57;;;990.58;;
25231;SDS011;13176;51.140;6.290;2023-09-18T04:47:12;1143.95;;;999.90;;
25231;SDS011;13176;51.140;6.290;2023-09-18T04:49:39;1127.82;;;999.90;;
25231;SDS011;13176;51.140;6.290;2023-09-18T04:52:05;1122.32;;;998.10;;
25231;SDS011;13176;51.140;6.290;2023-09-18T04:54:32;1134.30;;;999.90;;
25231;SDS011;13176;51.140;6.290;2023-09-18T04:56:58;1112.72;;;997.75;;
25231;SDS011;13176;51.140;6.290;2023-09-18T04:59:25;1134.13;;;999.90;;
25231;SDS011;13176;51.140;6.290;2023-09-18T05:01:51;1131.43;;;999.90;;
25231;SDS011;13176;51.140;6.290;2023-09-18T05:04:18;1121.80;;;996.58;;
25231;SDS011;13176;51.140;6.290;2023-09-18T05:06:44;1108.15;;;991.47;;
25231;SDS011;13176;51.140;6.290;2023-09-18T05:09:11;1106.00;;;988.08;;
25231;SDS011;13176;51.140;6.290;2023-09-18T05:11:37;1114.75;;;993.05;;
25231;SDS011;13176;51.140;6.290;2023-09-18T05:14:04;1096.50;;;986.20;;
25231;SDS011;13176;51.140;6.290;2023-09-18T05:16:32;1089.10;;;974.70;;
25231;SDS011;13176;51.140;6.290;2023-09-18T05:19:01;1108.53;;;992.67;;
25231;SDS011;13176;51.140;6.290;2023-09-18T05:21:28;1096.72;;;983.03;;
25231;SDS011;13176;51.140;6.290;2023-09-18T05:23:56;1084.28;;;969.30;;
25231;SDS011;13176;51.140;6.290;2023-09-18T05:26:22;1075.43;;;964.63;;
25231;SDS011;13176;51.140;6.290;2023-09-18T05:28:51;1104.75;;;988.85;;
25231;SDS011;13176;51.140;6.290;2023-09-18T05:31:18;1064.55;;;957.20;;
25231;SDS011;13176;51.140;6.290;2023-09-18T05:33:44;1046.72;;;940.95;;
25231;SDS011;13176;51.140;6.290;2023-09-18T05:36:12;1059.00;;;952.25;;
25231;SDS011;13176;51.140;6.290;2023-09-18T05:38:39;1050.55;;;947.58;;
25231;SDS011;13176;51.140;6.290;2023-09-18T05:41:05;1066.40;;;957.72;;
25231;SDS011;13176;51.140;6.290;2023-09-18T05:43:32;1039.82;;;934.83;;
25231;SDS011;13176;51.140;6.290;2023-09-18T05:45:58;1067.47;;;959.40;;
25231;SDS011;13176;51.140;6.290;2023-09-18T05:48:27;1037.03;;;933.90;;
25231;SDS011;13176;51.140;6.290;2023-09-18T05:50:54;1024.13;;;924.10;;
25231;SDS011;13176;51.140;6.290;2023-09-18T05:53:21;1018.67;;;918.63;;
25231;SDS011;13176;51.140;6.290;2023-09-18T05:55:50;1062.28;;;958.00;;
25231;SDS011;13176;51.140;6.290;2023-09-18T05:58:17;1038.13;;;937.60;;
25231;SDS011;13176;51.140;6.290;2023-09-18T06:00:45;1019.97;;;918.80;;
25231;SDS011;13176;51.140;6.290;2023-09-18T06:03:12;1042.45;;;939.22;;
25231;SDS011;13176;51.140;6.290;2023-09-18T06:05:39;1039.75;;;938.67;;
25231;SDS011;13176;51.140;6.290;2023-09-18T06:08:05;1004.03;;;906.92;;
25231;SDS011;13176;51.140;6.290;2023-09-18T06:10:34;1034.47;;;931.72;;
25231;SDS011;13176;51.140;6.290;2023-09-18T06:13:01;1029.70;;;931.35;;
25231;SDS011;13176;51.140;6.290;2023-09-18T06:15:30;1036.70;;;932.00;;
25231;SDS011;13176;51.140;6.290;2023-09-18T06:17:57;1034.60;;;931.72;;
25231;SDS011;13176;51.140;6.290;2023-09-18T06:20:24;1043.28;;;940.80;;
25231;SDS011;13176;51.140;6.290;2023-09-18T06:22:50;1037.25;;;935.25;;
25231;SDS011;13176;51.140;6.290;2023-09-18T06:25:17;1036.63;;;933.60;;
25231;SDS011;13176;51.140;6.290;2023-09-18T06:27:43;1042.80;;;941.13;;
25231;SDS011;13176;51.140;6.290;2023-09-18T06:30:10;1050.00;;;946.67;;
25231;SDS011;13176;51.140;6.290;2023-09-18T06:32:37;1070.43;;;962.58;;
25231;SDS011;13176;51.140;6.290;2023-09-18T06:35:04;1081.70;;;973.47;;
25231;SDS011;13176;51.140;6.290;2023-09-18T06:37:31;1058.28;;;952.78;;
25231;SDS011;13176;51.140;6.290;2023-09-18T06:39:57;1067.78;;;958.13;;
25231;SDS011;13176;51.140;6.290;2023-09-18T06:42:24;1051.25;;;945.35;;
25231;SDS011;13176;51.140;6.290;2023-09-18T06:44:50;1044.05;;;938.40;;
25231;SDS011;13176;51.140;6.290;2023-09-18T06:47:18;1049.47;;;943.80;;
25231;SDS011;13176;51.140;6.290;2023-09-18T06:49:45;1048.32;;;942.53;;
25231;SDS011;13176;51.140;6.290;2023-09-18T06:52:11;1047.28;;;942.33;;
25231;SDS011;13176;51.140;6.290;2023-09-18T06:54:39;1062.82;;;956.83;;
25231;SDS011;13176;51.140;6.290;2023-09-18T06:57:05;1030.95;;;931.28;;
25231;SDS011;13176;51.140;6.290;2023-09-18T06:59:31;1055.00;;;951.20;;
25231;SDS011;13176;51.140;6.290;2023-09-18T07:02:00;1042.30;;;937.92;;
25231;SDS011;13176;51.140;6.290;2023-09-18T07:04:28;1065.90;;;957.70;;
25231;SDS011;13176;51.140;6.290;2023-09-18T07:06:54;1043.65;;;939.33;;
25231;SDS011;13176;51.140;6.290;2023-09-18T07:09:22;1073.80;;;965.25;;
25231;SDS011;13176;51.140;6.290;2023-09-18T07:11:49;1031.80;;;931.03;;
25231;SDS011;13176;51.140;6.290;2023-09-18T07:14:17;1064.07;;;957.67;;
25231;SDS011;13176;51.140;6.290;2023-09-18T07:16:43;1046.50;;;940.78;;
25231;SDS011;13176;51.140;6.290;2023-09-18T07:19:10;1033.53;;;931.58;;
25231;SDS011;13176;51.140;6.290;2023-09-18T07:21:38;987.67;;;894.30;;
25231;SDS011;13176;51.140;6.290;2023-09-18T07:24:06;1020.92;;;922.47;;
25231;SDS011;13176;51.140;6.290;2023-09-18T07:26:33;998.30;;;903.75;;
25231;SDS011;13176;51.140;6.290;2023-09-18T07:29:00;970.08;;;879.70;;
25231;SDS011;13176;51.140;6.290;2023-09-18T07:31:28;1023.53;;;922.30;;
25231;SDS011;13176;51.140;6.290;2023-09-18T07:33:54;1023.83;;;922.45;;
25231;SDS011;13176;51.140;6.290;2023-09-18T07:36:21;942.08;;;854.40;;
25231;SDS011;13176;51.140;6.290;2023-09-18T07:38:47;951.40;;;862.92;;
25231;SDS011;13176;51.140;6.290;2023-09-18T07:41:14;994.92;;;901.72;;
25231;SDS011;13176;51.140;6.290;2023-09-18T07:43:41;916.97;;;835.50;;
25231;SDS011;13176;51.140;6.290;2023-09-18T07:46:08;947.97;;;860.40;;
25231;SDS011;13176;51.140;6.290;2023-09-18T07:48:35;939.72;;;851.90;;
25231;SDS011;13176;51.140;6.290;2023-09-18T07:51:01;952.30;;;866.05;;
25231;SDS011;13176;51.140;6.290;2023-09-18T07:53:28;968.63;;;879.47;;
25231;SDS011;13176;51.140;6.290;2023-09-18T07:55:57;995.97;;;900.63;;
25231;SDS011;13176;51.140;6.290;2023-09-18T07:58:25;946.80;;;860.35;;
25231;SDS011;13176;51.140;6.290;2023-09-18T08:00:55;887.97;;;813.40;;
25231;SDS011;13176;51.140;6.290;2023-09-18T08:03:23;866.20;;;792.35;;
25231;SDS011;13176;51.140;6.290;2023-09-18T08:05:53;879.63;;;804.78;;
25231;SDS011;13176;51.140;6.290;2023-09-18T08:08:20;896.20;;;814.28;;
25231;SDS011;13176;51.140;6.290;2023-09-18T08:10:48;868.40;;;791.45;;
25231;SDS011;13176;51.140;6.290;2023-09-18T08:13:15;896.72;;;817.85;;
25231;SDS011;13176;51.140;6.290;2023-09-18T08:15:44;902.92;;;822.22;;
25231;SDS011;13176;51.140;6.290;2023-09-18T08:18:11;915.63;;;833.25;;
25231;SDS011;13176;51.140;6.290;2023-09-18T08:20:42;876.08;;;796.17;;
25231;SDS011;13176;51.140;6.290;2023-09-18T08:23:09;824.83;;;757.35;;
25231;SDS011;13176;51.140;6.290;2023-09-18T08:25:37;838.70;;;767.13;;
25231;SDS011;13176;51.140;6.290;2023-09-18T08:28:09;861.00;;;788.42;;
25231;SDS011;13176;51.140;6.290;2023-09-18T08:30:35;833.42;;;763.70;;
25231;SDS011;13176;51.140;6.290;2023-09-18T08:33:03;788.25;;;723.08;;
25231;SDS011;13176;51.140;6.290;2023-09-18T08:35:31;770.05;;;708.70;;
25231;SDS011;13176;51.140;6.290;2023-09-18T08:37:58;784.47;;;720.83;;
25231;SDS011;13176;51.140;6.290;2023-09-18T08:40:24;917.17;;;835.45;;
25231;SDS011;13176;51.140;6.290;2023-09-18T08:42:52;700.88;;;646.80;;
25231;SDS011;13176;51.140;6.290;2023-09-18T08:45:31;811.03;;;743.00;;
25231;SDS011;13176;51.140;6.290;2023-09-18T08:48:03;792.33;;;727.13;;
25231;SDS011;13176;51.140;6.290;2023-09-18T08:50:32;776.33;;;715.28;;
25231;SDS011;13176;51.140;6.290;2023-09-18T08:52:59;773.13;;;710.97;;
25231;SDS011;13176;51.140;6.290;2023-09-18T08:55:26;826.97;;;755.15;;
25231;SDS011;13176;51.140;6.290;2023-09-18T08:57:53;795.00;;;729.90;;
25231;SDS011;13176;51.140;6.290;2023-09-18T09:00:21;773.65;;;711.38;;
25231;SDS011;13176;51.140;6.290;2023-09-18T09:02:48;719.33;;;664.33;;
25231;SDS011;13176;51.140;6.290;2023-09-18T09:05:17;622.33;;;577.42;;
25231;SDS011;13176;51.140;6.290;2023-09-18T09:07:44;743.55;;;686.55;;
25231;SDS011;13176;51.140;6.290;2023-09-18T09:10:10;753.08;;;695.35;;
25231;SDS011;13176;51.140;6.290;2023-09-18T09:15:28;727.10;;;670.40;;
25231;SDS011;13176;51.140;6.290;2023-09-18T09:18:01;637.50;;;591.70;;
25231;SDS011;13176;51.140;6.290;2023-09-18T09:20:33;682.20;;;631.78;;
25231;SDS011;13176;51.140;6.290;2023-09-18T09:23:02;693.60;;;641.70;;
25231;SDS011;13176;51.140;6.290;2023-09-18T09:25:30;822.22;;;752.75;;
25231;SDS011;13176;51.140;6.290;2023-09-18T09:28:01;606.42;;;562.60;;
25231;SDS011;13176;51.140;6.290;2023-09-18T09:30:32;622.30;;;578.20;;
25231;SDS011;13176;51.140;6.290;2023-09-18T09:33:00;588.95;;;547.78;;
25231;SDS011;13176;51.140;6.290;2023-09-18T09:35:30;623.47;;;577.25;;
25231;SDS011;13176;51.140;6.290;2023-09-18T09:38:00;674.70;;;625.25;;
25231;SDS011;13176;51.140;6.290;2023-09-18T09:40:34;638.95;;;592.65;;
25231;SDS011;13176;51.140;6.290;2023-09-18T09:43:01;585.58;;;545.53;;
25231;SDS011;13176;51.140;6.290;2023-09-18T09:45:29;514.22;;;480.17;;
25231;SDS011;13176;51.140;6.290;2023-09-18T09:48:05;535.20;;;498.60;;
25231;SDS011;13176;51.140;6.290;2023-09-18T09:50:34;632.78;;;585.45;;
25231;SDS011;13176;51.140;6.290;2023-09-18T09:53:12;549.60;;;512.85;;
25231;SDS011;13176;51.140;6.290;2023-09-18T09:55:40;377.13;;;353.88;;
25231;SDS011;13176;51.140;6.290;2023-09-18T09:58:07;347.35;;;326.48;;
25231;SDS011;13176;51.140;6.290;2023-09-18T10:03:14;447.38;;;420.05;;
25231;SDS011;13176;51.140;6.290;2023-09-18T10:05:44;208.73;;;196.77;;
25231;SDS011;13176;51.140;6.290;2023-09-18T10:08:19;201.20;;;190.00;;
25231;SDS011;13176;51.140;6.290;2023-09-18T10:10:49;289.50;;;272.92;;
25231;SDS011;13176;51.140;6.290;2023-09-18T10:13:40;232.57;;;219.73;;
25231;SDS011;13176;51.140;6.290;2023-09-18T10:16:16;158.52;;;149.63;;
25231;SDS011;13176;51.140;6.290;2023-09-18T10:24:29;205.38;;;194.05;;
25231;SDS011;13176;51.140;6.290;2023-09-18T10:27:04;196.75;;;185.48;;
25231;SDS011;13176;51.140;6.290;2023-09-18T10:29:32;134.70;;;126.97;;
25231;SDS011;13176;51.140;6.290;2023-09-18T10:32:02;132.70;;;125.10;;
25231;SDS011;13176;51.140;6.290;2023-09-18T10:34:30;85.43;;;80.50;;
25231;SDS011;13176;51.140;6.290;2023-09-18T10:37:00;94.55;;;89.35;;
25231;SDS011;13176;51.140;6.290;2023-09-18T10:39:38;68.15;;;64.30;;
25231;SDS011;13176;51.140;6.290;2023-09-18T10:42:08;53.33;;;50.38;;
25231;SDS011;13176;51.140;6.290;2023-09-18T10:44:35;55.17;;;52.00;;
25231;SDS011;13176;51.140;6.290;2023-09-18T10:47:06;56.28;;;53.10;;
25231;SDS011;13176;51.140;6.290;2023-09-18T10:49:35;61.45;;;57.80;;
25231;SDS011;13176;51.140;6.290;2023-09-18T10:52:02;58.05;;;54.70;;
25231;SDS011;13176;51.140;6.290;2023-09-18T10:54:30;50.03;;;47.28;;
25231;SDS011;13176;51.140;6.290;2023-09-18T10:56:57;55.83;;;52.67;;
25231;SDS011;13176;51.140;6.290;2023-09-18T10:59:24;36.40;;;34.20;;
25231;SDS011;13176;51.140;6.290;2023-09-18T11:01:50;52.67;;;49.63;;
25231;SDS011;13176;51.140;6.290;2023-09-18T11:04:19;54.13;;;51.08;;
25231;SDS011;13176;51.140;6.290;2023-09-18T11:09:25;35.20;;;33.22;;
25231;SDS011;13176;51.140;6.290;2023-09-18T11:14:40;33.80;;;31.67;;
25231;SDS011;13176;51.140;6.290;2023-09-18T11:17:27;30.25;;;27.98;;
25231;SDS011;13176;51.140;6.290;2023-09-18T11:20:17;27.27;;;25.83;;
25231;SDS011;13176;51.140;6.290;2023-09-18T11:22:47;58.75;;;54.95;;
25231;SDS011;13176;51.140;6.290;2023-09-18T11:28:15;47.40;;;44.60;;
25231;SDS011;13176;51.140;6.290;2023-09-18T11:30:52;36.83;;;34.75;;
25231;SDS011;13176;51.140;6.290;2023-09-18T11:33:33;26.88;;;25.27;;
25231;SDS011;13176;51.140;6.290;2023-09-18T11:38:34;30.42;;;28.70;;
25231;SDS011;13176;51.140;6.290;2023-09-18T11:46:46;30.88;;;28.98;;
25231;SDS011;13176;51.140;6.290;2023-09-18T11:49:22;28.15;;;26.70;;
25231;SDS011;13176;51.140;6.290;2023-09-18T11:51:53;29.73;;;27.92;;
25231;SDS011;13176;51.140;6.290;2023-09-18T11:54:20;39.28;;;37.03;;
25231;SDS011;13176;51.140;6.290;2023-09-18T11:56:47;40.42;;;38.25;;
25231;SDS011;13176;51.140;6.290;2023-09-18T11:59:14;33.20;;;31.23;;
25231;SDS011;13176;51.140;6.290;2023-09-18T12:01:41;53.13;;;50.25;;
25231;SDS011;13176;51.140;6.290;2023-09-18T12:04:12;25.50;;;24.05;;
25231;SDS011;13176;51.140;6.290;2023-09-18T12:06:41;24.15;;;22.85;;
25231;SDS011;13176;51.140;6.290;2023-09-18T12:09:08;25.15;;;23.55;;
25231;SDS011;13176;51.140;6.290;2023-09-18T12:11:35;24.77;;;22.90;;
25231;SDS011;13176;51.140;6.290;2023-09-18T12:14:03;24.45;;;23.05;;
25231;SDS011;13176;51.140;6.290;2023-09-18T12:16:30;26.20;;;24.40;;
25231;SDS011;13176;51.140;6.290;2023-09-18T12:19:05;57.63;;;54.25;;
25231;SDS011;13176;51.140;6.290;2023-09-18T12:21:41;25.08;;;23.58;;
25231;SDS011;13176;51.140;6.290;2023-09-18T12:24:20;21.83;;;20.70;;
25231;SDS011;13176;51.140;6.290;2023-09-18T12:26:47;21.15;;;19.92;;
25231;SDS011;13176;51.140;6.290;2023-09-18T12:29:14;21.55;;;20.35;;
25231;SDS011;13176;51.140;6.290;2023-09-18T12:31:41;24.85;;;23.52;;
25231;SDS011;13176;51.140;6.290;2023-09-18T12:34:18;21.15;;;20.05;;
25231;SDS011;13176;51.140;6.290;2023-09-18T12:36:47;23.95;;;22.65;;
25231;SDS011;13176;51.140;6.290;2023-09-18T12:39:14;23.33;;;21.73;;
25231;SDS011;13176;51.140;6.290;2023-09-18T12:41:50;31.65;;;29.58;;
25231;SDS011;13176;51.140;6.290;2023-09-18T12:44:17;57.42;;;53.90;;
25231;SDS011;13176;51.140;6.290;2023-09-18T12:46:44;74.53;;;70.32;;
25231;SDS011;13176;51.140;6.290;2023-09-18T12:49:29;41.03;;;38.45;;
25231;SDS011;13176;51.140;6.290;2023-09-18T12:51:59;46.05;;;43.35;;
25231;SDS011;13176;51.140;6.290;2023-09-18T12:54:44;49.70;;;46.90;;
25231;SDS011;13176;51.140;6.290;2023-09-18T12:57:15;47.88;;;45.17;;
25231;SDS011;13176;51.140;6.290;2023-09-18T12:59:42;45.10;;;42.60;;
25231;SDS011;13176;51.140;6.290;2023-09-18T13:02:12;41.42;;;39.05;;
25231;SDS011;13176;51.140;6.290;2023-09-18T13:04:40;44.50;;;42.10;;
25231;SDS011;13176;51.140;6.290;2023-09-18T13:07:10;57.50;;;54.35;;
25231;SDS011;13176;51.140;6.290;2023-09-18T13:09:43;54.05;;;50.95;;
25231;SDS011;13176;51.140;6.290;2023-09-18T13:12:09;54.13;;;51.13;;
25231;SDS011;13176;51.140;6.290;2023-09-18T13:17:41;42.40;;;40.05;;
25231;SDS011;13176;51.140;6.290;2023-09-18T13:20:20;42.47;;;39.97;;
25231;SDS011;13176;51.140;6.290;2023-09-18T13:22:51;42.60;;;40.08;;
25231;SDS011;13176;51.140;6.290;2023-09-18T13:25:22;52.00;;;49.00;;
25231;SDS011;13176;51.140;6.290;2023-09-18T13:27:50;37.35;;;35.35;;
25231;SDS011;13176;51.140;6.290;2023-09-18T13:30:18;35.47;;;33.45;;
25231;SDS011;13176;51.140;6.290;2023-09-18T13:32:47;35.05;;;33.03;;
25231;SDS011;13176;51.140;6.290;2023-09-18T13:35:18;44.25;;;41.80;;
25231;SDS011;13176;51.140;6.290;2023-09-18T13:37:45;56.60;;;53.47;;
25231;SDS011;13176;51.140;6.290;2023-09-18T13:40:12;52.85;;;49.92;;
25231;SDS011;13176;51.140;6.290;2023-09-18T13:42:38;54.50;;;51.60;;
25231;SDS011;13176;51.140;6.290;2023-09-18T13:45:06;54.00;;;51.00;;
25231;SDS011;13176;51.140;6.290;2023-09-18T13:47:34;56.10;;;53.00;;
25231;SDS011;13176;51.140;6.290;2023-09-18T13:50:02;38.67;;;36.55;;
25231;SDS011;13176;51.140;6.290;2023-09-18T13:52:31;55.88;;;52.38;;
25231;SDS011;13176;51.140;6.290;2023-09-18T13:55:00;44.85;;;42.17;;
25231;SDS011;13176;51.140;6.290;2023-09-18T13:57:27;61.20;;;57.80;;
25231;SDS011;13176;51.140;6.290;2023-09-18T13:59:54;59.38;;;56.03;;
25231;SDS011;13176;51.140;6.290;2023-09-18T14:02:20;44.78;;;42.38;;
25231;SDS011;13176;51.140;6.290;2023-09-18T14:04:49;36.97;;;34.85;;
25231;SDS011;13176;51.140;6.290;2023-09-18T14:07:15;40.85;;;38.03;;
25231;SDS011;13176;51.140;6.290;2023-09-18T14:09:42;52.53;;;49.65;;
25231;SDS011;13176;51.140;6.290;2023-09-18T14:12:08;26.90;;;25.05;;
25231;SDS011;13176;51.140;6.290;2023-09-18T14:14:35;24.75;;;23.40;;
25231;SDS011;13176;51.140;6.290;2023-09-18T14:17:02;35.13;;;33.25;;
25231;SDS011;13176;51.140;6.290;2023-09-18T14:19:31;33.92;;;31.98;;
25231;SDS011;13176;51.140;6.290;2023-09-18T14:21:58;32.22;;;30.20;;
25231;SDS011;13176;51.140;6.290;2023-09-18T14:24:30;31.90;;;30.00;;
25231;SDS011;13176;51.140;6.290;2023-09-18T14:26:56;30.15;;;28.50;;
25231;SDS011;13176;51.140;6.290;2023-09-18T14:29:23;25.92;;;24.08;;
25231;SDS011;13176;51.140;6.290;2023-09-18T14:31:49;22.90;;;21.60;;
25231;SDS011;13176;51.140;6.290;2023-09-18T14:34:16;19.95;;;18.80;;